createdAt,value
2023-08-12T00:00:12.768Z,99.90
2023-08-12T00:02:41.789Z,99.90
2023-08-12T00:05:12.171Z,99.90
2023-08-12T00:07:43.682Z,99.90
2023-08-12T00:10:13.683Z,99.90
2023-08-12T00:12:42.041Z,99.90
2023-08-12T00:15:11.898Z,99.90
2023-08-12T00:17:42.971Z,99.90
2023-08-12T00:20:13.766Z,99.90
2023-08-12T00:22:46.459Z,99.90
2023-08-12T00:25:15.052Z,99.90
2023-08-12T00:27:43.403Z,99.90
2023-08-12T00:30:12.251Z,99.90
2023-08-12T00:32:42.191Z,99.90
2023-08-12T00:35:10.947Z,99.90
2023-08-12T00:37:39.142Z,99.90
2023-08-12T00:40:10.397Z,99.90
2023-08-12T00:42:38.636Z,99.90
2023-08-12T00:45:12.444Z,99.90
2023-08-12T00:47:40.864Z,99.90
2023-08-12T00:50:11.324Z,99.90
2023-08-12T00:52:39.981Z,99.90
2023-08-12T00:55:10.378Z,99.90
2023-08-12T00:57:38.767Z,99.90
2023-08-12T01:00:09.283Z,99.90
2023-08-12T01:02:37.810Z,99.90
2023-08-12T01:05:06.886Z,99.90
2023-08-12T01:07:35.538Z,99.90
2023-08-12T01:10:03.978Z,99.90
2023-08-12T01:12:39.050Z,99.90
2023-08-12T01:15:11.522Z,99.90
2023-08-12T01:17:43.690Z,99.90
2023-08-12T01:20:14.145Z,99.90
2023-08-12T01:22:44.230Z,99.90
2023-08-12T01:25:14.220Z,99.90
2023-08-12T01:27:42.513Z,99.90
2023-08-12T01:30:12.208Z,99.90
2023-08-12T01:32:45.428Z,99.90
2023-08-12T01:35:19.718Z,99.90
2023-08-12T01:37:48.873Z,99.90
2023-08-12T01:40:20.551Z,99.90
2023-08-12T01:42:50.326Z,99.90
2023-08-12T01:45:20.486Z,99.90
2023-08-12T01:47:52.329Z,99.90
2023-08-12T01:50:22.822Z,99.90
2023-08-12T01:52:51.101Z,99.90
2023-08-12T01:55:21.184Z,99.90
2023-08-12T01:57:49.382Z,99.90
2023-08-12T02:00:18.473Z,99.90
2023-08-12T02:02:48.370Z,99.90
2023-08-12T02:05:17.063Z,99.90
2023-08-12T02:07:46.560Z,99.90
2023-08-12T02:10:16.334Z,99.90
2023-08-12T02:12:45.907Z,99.90
2023-08-12T02:15:14.333Z,99.90
2023-08-12T02:17:42.694Z,99.90
2023-08-12T02:20:11.785Z,99.90
2023-08-12T02:22:40.350Z,99.90
2023-08-12T02:25:09.882Z,99.90
2023-08-12T02:27:38.101Z,99.90
2023-08-12T02:30:09.163Z,99.90
2023-08-12T02:32:37.552Z,99.90
2023-08-12T02:35:06.165Z,99.90
2023-08-12T02:37:34.455Z,99.90
2023-08-12T02:40:05.857Z,99.90
2023-08-12T02:42:34.220Z,99.90
2023-08-12T02:45:02.666Z,99.90
2023-08-12T02:47:32.353Z,99.90
2023-08-12T02:50:00.540Z,99.90
2023-08-12T02:52:29.030Z,99.90
2023-08-12T02:54:57.539Z,99.90
2023-08-12T02:57:25.798Z,99.90
2023-08-12T02:59:54.279Z,99.90
2023-08-12T03:02:22.625Z,99.90
2023-08-12T03:04:52.353Z,99.90
2023-08-12T03:07:20.629Z,99.90
2023-08-12T03:09:49.043Z,99.90
2023-08-12T03:12:17.250Z,99.90
2023-08-12T03:14:45.653Z,99.90
2023-08-12T03:17:14.254Z,99.90
2023-08-12T03:19:42.652Z,99.90
2023-08-12T03:22:12.375Z,99.90
2023-08-12T03:24:40.782Z,99.90
2023-08-12T03:27:09.106Z,99.90
2023-08-12T03:29:37.464Z,99.90
2023-08-12T03:32:06.270Z,99.90
2023-08-12T03:34:34.626Z,99.90
2023-08-12T03:37:02.834Z,99.90
2023-08-12T03:39:32.807Z,99.90
2023-08-12T03:42:01.030Z,99.90
2023-08-12T03:44:29.370Z,99.90
2023-08-12T03:46:57.674Z,99.90
2023-08-12T03:49:25.927Z,99.90
2023-08-12T03:51:54.269Z,99.90
2023-08-12T03:54:22.648Z,99.90
2023-08-12T03:56:52.358Z,99.90
2023-08-12T03:59:20.816Z,99.90
2023-08-12T04:01:49.206Z,99.90
2023-08-12T04:04:17.464Z,99.90
2023-08-12T04:06:45.771Z,99.90
2023-08-12T04:09:14.063Z,99.90
2023-08-12T04:11:43.022Z,99.90
2023-08-12T04:14:12.608Z,99.90
2023-08-12T04:16:41.473Z,99.90
2023-08-12T04:19:10.014Z,99.90
2023-08-12T04:21:38.397Z,99.90
2023-08-12T04:24:07.372Z,99.90
2023-08-12T04:26:35.619Z,99.90
2023-08-12T04:29:03.957Z,99.90
2023-08-12T04:31:33.897Z,99.90
2023-08-12T04:34:02.209Z,99.90
2023-08-12T04:36:30.474Z,99.90
2023-08-12T04:38:58.877Z,99.90
2023-08-12T04:41:27.114Z,99.90
2023-08-12T04:43:55.623Z,99.90
2023-08-12T04:46:24.365Z,99.90
2023-08-12T04:48:54.047Z,99.90
2023-08-12T04:51:22.302Z,99.90
2023-08-12T04:53:50.825Z,99.90
2023-08-12T04:56:19.379Z,99.90
2023-08-12T04:58:47.563Z,99.90
2023-08-12T05:01:16.013Z,99.90
2023-08-12T05:03:44.307Z,99.90
2023-08-12T05:06:13.810Z,99.90
2023-08-12T05:08:42.103Z,99.90
2023-08-12T05:11:10.379Z,99.90
2023-08-12T05:13:38.563Z,99.90
2023-08-12T05:16:07.222Z,99.90
2023-08-12T05:18:35.487Z,99.90
2023-08-12T05:21:04.205Z,99.90
2023-08-12T05:23:34.052Z,99.90
2023-08-12T05:26:02.249Z,99.90
2023-08-12T05:28:30.467Z,99.90
2023-08-12T05:30:58.893Z,99.90
2023-08-12T05:33:27.225Z,99.90
2023-08-12T05:35:55.912Z,99.90
2023-08-12T05:38:24.552Z,99.90
2023-08-12T05:40:54.131Z,99.90
2023-08-12T05:43:22.359Z,99.90
2023-08-12T05:45:51.071Z,99.90
2023-08-12T05:48:19.342Z,99.90
2023-08-12T05:50:47.580Z,99.90
2023-08-12T05:53:16.144Z,99.90
2023-08-12T05:55:44.417Z,99.90
2023-08-12T05:58:13.973Z,99.90
2023-08-12T06:00:46.556Z,99.90
2023-08-12T06:03:15.556Z,99.90
2023-08-12T06:05:47.081Z,99.90
2023-08-12T06:08:15.718Z,99.90
2023-08-12T06:10:44.239Z,99.90
2023-08-12T06:13:13.891Z,99.90
2023-08-12T06:15:42.409Z,99.90
2023-08-12T06:18:11.321Z,99.90
2023-08-12T06:20:39.685Z,99.90
2023-08-12T06:23:07.975Z,99.90
2023-08-12T06:25:37.499Z,99.90
2023-08-12T06:28:06.379Z,99.90
2023-08-12T06:30:36.033Z,99.90
2023-08-12T06:33:04.584Z,99.90
2023-08-12T06:35:32.855Z,99.90
2023-08-12T06:38:01.793Z,99.90
2023-08-12T06:40:31.966Z,99.90
2023-08-12T06:43:00.186Z,99.90
2023-08-12T06:45:28.619Z,99.90
2023-08-12T06:47:58.509Z,99.90
2023-08-12T06:50:26.888Z,99.90
2023-08-12T06:52:55.259Z,99.90
2023-08-12T06:55:23.728Z,99.90
2023-08-12T06:57:51.991Z,99.90
2023-08-12T07:00:20.204Z,99.90
2023-08-12T07:02:48.538Z,99.90
2023-08-12T07:05:18.422Z,99.90
2023-08-12T07:07:46.589Z,99.90
2023-08-12T07:10:14.880Z,99.90
2023-08-12T07:12:43.107Z,99.90
2023-08-12T07:15:13.120Z,99.90
2023-08-12T07:17:42.027Z,99.90
2023-08-12T07:20:10.865Z,99.90
2023-08-12T07:22:40.731Z,99.90
2023-08-12T07:25:09.731Z,99.90
2023-08-12T07:27:37.976Z,99.90
2023-08-12T07:30:07.369Z,99.90
2023-08-12T07:32:35.669Z,99.90
2023-08-12T07:35:03.932Z,99.90
2023-08-12T07:37:32.232Z,99.90
2023-08-12T07:40:02.001Z,99.90
2023-08-12T07:42:30.321Z,99.90
2023-08-12T07:44:58.615Z,99.90
2023-08-12T07:47:27.189Z,99.90
2023-08-12T07:49:55.418Z,99.90
2023-08-12T07:52:23.699Z,99.90
2023-08-12T07:54:52.051Z,99.90
2023-08-12T07:57:25.299Z,99.90
2023-08-12T07:59:53.785Z,99.90
2023-08-12T08:02:22.068Z,99.90
2023-08-12T08:04:50.502Z,99.90
2023-08-12T08:07:19.081Z,99.90
2023-08-12T08:09:47.308Z,99.90
2023-08-12T08:12:15.820Z,99.90
2023-08-12T08:14:45.660Z,99.90
2023-08-12T08:17:14.017Z,99.90
2023-08-12T08:19:42.405Z,99.90
2023-08-12T08:22:11.159Z,99.90
2023-08-12T08:24:39.887Z,99.90
2023-08-12T08:27:08.589Z,99.90
2023-08-12T08:29:37.027Z,99.90
2023-08-12T08:32:07.274Z,99.90
2023-08-12T08:34:35.738Z,99.90
2023-08-12T08:37:04.066Z,99.90
2023-08-12T08:39:32.732Z,99.90
2023-08-12T08:42:01.626Z,99.90
2023-08-12T08:44:32.735Z,99.90
2023-08-12T08:47:01.588Z,99.90
2023-08-12T08:49:33.081Z,99.90
2023-08-12T08:52:02.594Z,99.90
2023-08-12T08:54:30.946Z,99.90
2023-08-12T08:57:04.011Z,99.90
2023-08-12T08:59:37.086Z,99.90
2023-08-12T09:02:06.824Z,99.90
2023-08-12T09:04:37.163Z,98.40
2023-08-12T09:07:06.301Z,98.40
2023-08-12T09:09:36.453Z,99.90
2023-08-12T09:12:07.357Z,97.60
2023-08-12T09:14:36.525Z,99.90
2023-08-12T09:17:05.255Z,99.90
2023-08-12T09:19:33.495Z,94.50
2023-08-12T09:22:05.629Z,92.70
2023-08-12T09:24:34.149Z,98.90
2023-08-12T09:27:03.014Z,97.00
2023-08-12T09:29:32.705Z,99.70
2023-08-12T09:32:14.479Z,93.70
2023-08-12T09:34:49.844Z,43.10
2023-08-12T09:37:20.633Z,9.40
2023-08-12T09:39:49.892Z,1.00
2023-08-12T09:42:18.603Z,1.00
2023-08-12T09:44:47.691Z,1.00
2023-08-12T09:47:16.024Z,1.00
2023-08-12T09:49:44.220Z,1.00
2023-08-12T09:52:12.931Z,1.00
2023-08-12T09:54:44.868Z,1.00
2023-08-12T09:57:15.782Z,1.00
2023-08-12T09:59:45.445Z,1.00
2023-08-12T10:02:19.846Z,1.00
2023-08-12T10:04:51.945Z,1.00
2023-08-12T10:07:21.388Z,1.00
2023-08-12T10:09:51.550Z,1.00
2023-08-12T10:12:20.782Z,1.00
2023-08-12T10:14:50.744Z,1.00
2023-08-12T10:17:37.018Z,1.00
2023-08-12T10:20:10.182Z,1.00
2023-08-12T10:22:41.165Z,1.00
2023-08-12T10:25:11.690Z,1.00
2023-08-12T10:27:40.065Z,1.00
2023-08-12T10:30:10.463Z,1.00
2023-08-12T10:32:39.793Z,1.00
2023-08-12T10:35:09.546Z,1.00
2023-08-12T10:37:38.033Z,1.00
2023-08-12T10:40:08.603Z,1.00
2023-08-12T10:42:45.347Z,1.00
2023-08-12T10:45:14.757Z,1.00
2023-08-12T10:47:50.457Z,1.00
2023-08-12T10:50:23.300Z,1.00
2023-08-12T10:52:55.326Z,99.90
2023-08-12T10:55:25.288Z,47.00
2023-08-12T10:57:57.596Z,99.90
2023-08-12T11:00:27.384Z,99.90
2023-08-12T11:02:57.392Z,1.00
2023-08-12T11:05:26.499Z,99.90
2023-08-12T11:07:59.917Z,1.00
2023-08-12T11:10:31.936Z,99.90
2023-08-12T11:13:04.466Z,99.90
2023-08-12T11:15:34.854Z,1.00
2023-08-12T11:18:05.683Z,99.90
2023-08-12T11:20:34.509Z,99.90
2023-08-12T11:23:03.204Z,99.90
2023-08-12T11:25:33.019Z,1.00
2023-08-12T11:28:06.670Z,1.00
2023-08-12T11:30:35.288Z,99.90
2023-08-12T11:33:05.054Z,99.90
2023-08-12T11:35:33.402Z,99.90
2023-08-12T11:38:04.618Z,99.90
2023-08-12T11:40:33.056Z,99.90
2023-08-12T11:43:01.278Z,99.90
2023-08-12T11:45:31.116Z,99.90
2023-08-12T11:47:59.625Z,1.00
2023-08-12T11:50:29.151Z,99.90
2023-08-12T11:52:59.938Z,99.90
2023-08-12T11:55:28.690Z,99.90
2023-08-12T11:57:57.028Z,99.90
2023-08-12T12:00:28.372Z,99.90
2023-08-12T12:02:59.121Z,99.90
2023-08-12T12:05:30.942Z,99.90
2023-08-12T12:08:00.771Z,99.90
2023-08-12T12:10:34.356Z,99.90
2023-08-12T12:13:06.810Z,1.00
2023-08-12T12:15:56.665Z,29.50
2023-08-12T12:18:28.093Z,1.00
2023-08-12T12:20:58.212Z,99.90
2023-08-12T12:23:31.585Z,1.00
2023-08-12T12:26:02.030Z,99.90
2023-08-12T12:28:30.815Z,99.90
2023-08-12T12:30:59.397Z,99.90
2023-08-12T12:33:31.537Z,99.90
2023-08-12T12:36:01.254Z,91.10
2023-08-12T12:38:31.578Z,66.20
2023-08-12T12:41:00.704Z,99.90
2023-08-12T12:43:28.934Z,99.90
2023-08-12T12:45:57.262Z,7.80
2023-08-12T12:48:25.855Z,1.00
2023-08-12T12:50:55.459Z,99.90
2023-08-12T12:53:23.763Z,1.00
2023-08-12T12:55:52.863Z,99.90
2023-08-12T12:58:23.558Z,1.00
2023-08-12T13:00:51.920Z,1.00
2023-08-12T13:03:20.564Z,99.90
2023-08-12T13:05:48.919Z,99.90
2023-08-12T13:08:18.655Z,99.90
2023-08-12T13:10:47.474Z,99.90
2023-08-12T13:13:16.918Z,99.90
2023-08-12T13:15:45.328Z,99.90
2023-08-12T13:18:14.288Z,99.90
2023-08-12T13:20:42.513Z,1.00
2023-08-12T13:23:10.754Z,99.90
2023-08-12T13:25:41.105Z,99.90
2023-08-12T13:28:09.541Z,99.90
2023-08-12T13:30:39.266Z,99.90
2023-08-12T13:33:07.848Z,99.90
2023-08-12T13:35:36.069Z,99.90
2023-08-12T13:38:04.560Z,1.00
2023-08-12T13:40:33.290Z,99.90
2023-08-12T13:43:03.126Z,99.90
2023-08-12T13:45:31.361Z,99.90
2023-08-12T13:47:59.800Z,99.90
2023-08-12T13:50:28.823Z,99.90
2023-08-12T13:52:57.027Z,99.90
2023-08-12T13:55:25.615Z,99.90
2023-08-12T13:57:54.492Z,99.90
2023-08-12T14:00:25.792Z,99.90
2023-08-12T14:02:55.234Z,99.90
2023-08-12T14:05:23.723Z,99.90
2023-08-12T14:07:52.020Z,99.90
2023-08-12T14:10:20.560Z,99.90
2023-08-12T14:12:51.976Z,99.90
2023-08-12T14:15:21.455Z,99.90
2023-08-12T14:18:09.792Z,99.90
2023-08-12T14:20:38.120Z,99.90
2023-08-12T14:23:06.591Z,99.90
2023-08-12T14:25:34.783Z,99.90
2023-08-12T14:28:04.116Z,99.90
2023-08-12T14:30:32.585Z,99.90
2023-08-12T14:33:01.106Z,99.90
2023-08-12T14:35:30.826Z,99.90
2023-08-12T14:37:59.070Z,99.90
2023-08-12T14:40:27.387Z,99.90
2023-08-12T14:42:55.818Z,99.90
2023-08-12T14:45:24.226Z,99.90
2023-08-12T14:47:52.556Z,99.90
2023-08-12T14:50:21.088Z,99.90
2023-08-12T14:52:50.726Z,99.90
2023-08-12T14:55:19.087Z,99.90
2023-08-12T14:57:47.446Z,99.90
2023-08-12T15:00:16.699Z,99.90
2023-08-12T15:02:45.012Z,99.90
2023-08-12T15:05:13.498Z,99.90
2023-08-12T15:07:41.870Z,99.90
2023-08-12T15:10:12.468Z,99.90
2023-08-12T15:12:41.469Z,99.90
2023-08-12T15:15:10.162Z,99.90
2023-08-12T15:17:38.396Z,99.90
2023-08-12T15:20:07.963Z,99.90
2023-08-12T15:22:36.250Z,99.90
2023-08-12T15:25:04.677Z,99.90
2023-08-12T15:27:34.672Z,99.90
2023-08-12T15:30:03.075Z,99.90
2023-08-12T15:32:32.332Z,99.90
2023-08-12T15:35:00.998Z,99.90
2023-08-12T15:37:29.988Z,99.90
2023-08-12T15:39:58.207Z,99.90
2023-08-12T15:42:26.659Z,99.90
2023-08-12T15:44:56.394Z,99.90
2023-08-12T15:47:24.630Z,99.90
2023-08-12T15:49:53.063Z,99.90
2023-08-12T15:52:21.501Z,99.90
2023-08-12T15:54:49.742Z,99.90
2023-08-12T15:57:18.215Z,99.90
2023-08-12T15:59:47.000Z,99.90
2023-08-12T16:02:17.135Z,99.90
2023-08-12T16:04:45.941Z,99.90
2023-08-12T16:07:14.230Z,99.90
2023-08-12T16:09:42.582Z,99.90
2023-08-12T16:12:11.466Z,99.90
2023-08-12T16:14:44.904Z,99.90
2023-08-12T16:17:13.367Z,99.90
2023-08-12T16:19:46.431Z,99.90
2023-08-12T16:22:15.503Z,99.90
2023-08-12T16:24:53.291Z,99.90
2023-08-12T16:27:24.756Z,99.90
2023-08-12T16:29:55.831Z,99.90
2023-08-12T16:32:24.134Z,99.90
2023-08-12T16:34:53.980Z,99.90
2023-08-12T16:37:22.411Z,99.90
2023-08-12T16:39:52.886Z,99.90
2023-08-12T16:42:23.045Z,99.90
2023-08-12T16:44:52.482Z,99.90
2023-08-12T16:47:20.775Z,99.90
2023-08-12T16:49:49.139Z,99.90
2023-08-12T16:52:18.950Z,99.90
2023-08-12T16:54:47.117Z,99.90
2023-08-12T16:57:15.514Z,99.90
2023-08-12T16:59:43.705Z,99.90
2023-08-12T17:02:12.316Z,99.90
2023-08-12T17:04:41.518Z,99.90
2023-08-12T17:07:09.846Z,99.90
2023-08-12T17:09:39.605Z,99.90
2023-08-12T17:12:09.673Z,99.90
2023-08-12T17:14:37.885Z,99.90
2023-08-12T17:17:06.207Z,99.90
2023-08-12T17:19:36.545Z,99.90
2023-08-12T17:22:05.223Z,99.90
2023-08-12T17:24:34.168Z,99.90
2023-08-12T17:27:03.967Z,99.90
2023-08-12T17:29:32.408Z,99.90
2023-08-12T17:32:00.638Z,99.90
2023-08-12T17:34:28.887Z,99.90
2023-08-12T17:36:57.258Z,99.90
2023-08-12T17:39:25.726Z,99.90
2023-08-12T17:41:54.242Z,99.90
2023-08-12T17:44:24.026Z,99.90
2023-08-12T17:46:52.276Z,99.90
2023-08-12T17:49:20.934Z,99.90
2023-08-12T17:51:49.105Z,99.90
2023-08-12T17:54:17.375Z,99.90
2023-08-12T17:56:45.657Z,99.90
2023-08-12T17:59:14.016Z,99.90
2023-08-12T18:01:43.612Z,99.90
2023-08-12T18:04:11.964Z,99.90
2023-08-12T18:06:40.540Z,99.90
2023-08-12T18:09:09.526Z,99.90
2023-08-12T18:11:38.078Z,99.90
2023-08-12T18:14:06.592Z,99.90
2023-08-12T18:16:35.646Z,99.90
2023-08-12T18:19:05.781Z,99.90
2023-08-12T18:21:33.982Z,99.90
2023-08-12T18:24:02.316Z,99.90
2023-08-12T18:26:30.802Z,99.90
2023-08-12T18:28:59.078Z,99.90
2023-08-12T18:31:27.340Z,99.90
2023-08-12T18:33:55.768Z,99.90
2023-08-12T18:36:25.381Z,99.90
2023-08-12T18:38:53.658Z,99.90
2023-08-12T18:41:22.020Z,99.90
2023-08-12T18:43:50.240Z,99.90
2023-08-12T18:46:18.508Z,99.90
2023-08-12T18:48:46.827Z,99.90
2023-08-12T18:51:15.166Z,99.90
2023-08-12T18:53:45.133Z,99.90
2023-08-12T18:56:13.622Z,99.90
2023-08-12T18:58:41.900Z,99.90
2023-08-12T19:01:10.248Z,99.90
2023-08-12T19:03:38.895Z,99.90
2023-08-12T19:06:07.166Z,99.90
2023-08-12T19:08:35.464Z,99.90
2023-08-12T19:11:05.776Z,99.90
2023-08-12T19:13:34.946Z,99.90
2023-08-12T19:16:03.358Z,99.90
2023-08-12T19:18:31.744Z,99.90
2023-08-12T19:21:00.105Z,99.90
2023-08-12T19:23:28.365Z,99.90
2023-08-12T19:25:56.742Z,99.90
2023-08-12T19:28:26.745Z,99.90
2023-08-12T19:30:54.976Z,99.90
2023-08-12T19:33:23.408Z,99.90
2023-08-12T19:35:51.606Z,99.90
2023-08-12T19:38:19.933Z,99.90
2023-08-12T19:40:48.384Z,99.90
2023-08-12T19:43:16.703Z,99.90
2023-08-12T19:45:46.358Z,99.90
2023-08-12T19:48:14.668Z,99.90
2023-08-12T19:50:44.153Z,99.90
2023-08-12T19:53:12.563Z,99.90
2023-08-12T19:55:41.021Z,99.90
2023-08-12T19:58:11.376Z,1.00
2023-08-12T20:00:39.758Z,1.00
2023-08-12T20:03:09.982Z,1.00
2023-08-12T20:05:38.263Z,1.00
2023-08-12T20:08:07.358Z,1.00
2023-08-12T20:10:36.150Z,1.00
2023-08-12T20:13:04.622Z,1.00
2023-08-12T20:15:33.183Z,1.00
2023-08-12T20:18:01.614Z,1.00
2023-08-12T20:20:32.334Z,1.00
2023-08-12T20:23:05.917Z,1.00
2023-08-12T20:25:37.888Z,1.00
2023-08-12T20:28:06.799Z,1.00
2023-08-12T20:30:35.299Z,1.00
2023-08-12T20:33:04.836Z,1.00
2023-08-12T20:35:34.620Z,1.00
2023-08-12T20:38:03.046Z,1.00
2023-08-12T20:40:31.410Z,1.00
2023-08-12T20:43:00.188Z,1.00
2023-08-12T20:45:28.597Z,1.00
2023-08-12T20:47:56.931Z,1.00
2023-08-12T20:50:25.296Z,1.00
2023-08-12T20:52:57.602Z,1.00
2023-08-12T20:55:25.876Z,1.00
2023-08-12T20:57:54.324Z,1.00
2023-08-12T21:00:22.979Z,1.00
2023-08-12T21:02:51.370Z,1.00
2023-08-12T21:05:20.810Z,1.00
2023-08-12T21:07:49.061Z,1.00
2023-08-12T21:10:18.866Z,1.00
2023-08-12T21:12:47.302Z,1.00
2023-08-12T21:15:15.626Z,1.00
2023-08-12T21:17:43.892Z,1.00
2023-08-12T21:20:13.058Z,1.00
2023-08-12T21:22:42.177Z,1.00
2023-08-12T21:25:11.009Z,1.00
2023-08-12T21:27:40.857Z,1.00
2023-08-12T21:30:10.030Z,4.20
2023-08-12T21:32:38.258Z,12.50
2023-08-12T21:35:07.485Z,19.30
2023-08-12T21:37:35.686Z,10.80
2023-08-12T21:40:03.971Z,10.50
2023-08-12T21:42:32.352Z,8.10
2023-08-12T21:45:02.009Z,15.20
2023-08-12T21:47:30.367Z,17.40
2023-08-12T21:49:58.887Z,11.70
2023-08-12T21:52:27.204Z,21.10
2023-08-12T21:54:55.468Z,21.10
2023-08-12T21:57:23.694Z,23.20
2023-08-12T21:59:52.012Z,23.80
2023-08-12T22:02:26.700Z,22.00
2023-08-12T22:04:55.446Z,20.90
2023-08-12T22:07:24.043Z,28.20
2023-08-12T22:09:52.755Z,28.00
2023-08-12T22:12:21.020Z,30.60
2023-08-12T22:14:49.306Z,34.00
2023-08-12T22:17:17.877Z,34.70
2023-08-12T22:19:48.910Z,39.90
2023-08-12T22:22:20.382Z,42.50
2023-08-12T22:24:49.255Z,47.30
2023-08-12T22:27:17.652Z,54.60
2023-08-12T22:29:45.920Z,58.50
2023-08-12T22:32:14.555Z,57.60
2023-08-12T22:34:43.035Z,55.60
2023-08-12T22:37:12.673Z,56.50
2023-08-12T22:39:41.972Z,59.20
2023-08-12T22:42:10.244Z,68.80
2023-08-12T22:44:38.610Z,69.00
2023-08-12T22:47:07.594Z,73.00
2023-08-12T22:49:35.802Z,65.00
2023-08-12T22:52:04.110Z,71.90
2023-08-12T22:54:33.976Z,67.70
2023-08-12T22:57:02.435Z,70.70
2023-08-12T22:59:30.579Z,73.60
2023-08-12T23:01:59.026Z,73.50
2023-08-12T23:04:27.301Z,72.30
2023-08-12T23:06:55.556Z,73.60
2023-08-12T23:09:23.881Z,76.90
2023-08-12T23:11:53.477Z,78.80
2023-08-12T23:14:21.673Z,81.50
2023-08-12T23:16:50.152Z,82.30
2023-08-12T23:19:18.544Z,85.10
2023-08-12T23:21:46.836Z,89.90
2023-08-12T23:24:15.148Z,90.00
2023-08-12T23:26:43.429Z,90.00
2023-08-12T23:29:13.286Z,90.00
2023-08-12T23:31:41.617Z,91.60
2023-08-12T23:34:10.000Z,92.40
2023-08-12T23:36:38.267Z,93.80
2023-08-12T23:39:07.054Z,96.60
2023-08-12T23:41:35.497Z,95.70
2023-08-12T23:44:03.763Z,97.20
2023-08-12T23:46:33.433Z,98.90
2023-08-12T23:49:01.922Z,99.90
2023-08-12T23:51:30.106Z,99.90
2023-08-12T23:53:58.384Z,99.90
2023-08-12T23:56:26.721Z,99.90
2023-08-12T23:58:54.885Z,99.90
